Time;durP1;ratioP1;P1;durP2;ratioP2;P2;SDS_P1;SDS_P2;PMS_P1;PMS_P2;Temp;Humidity;BMP_temperature;BMP_pressure;BME280_temperature;BME280_humidity;BME280_pressure;Samples;Min_cycle;Max_cycle;Signal;HPM_P1;HPM_P2
2023/11/10 00:02:23;;;;;;;3.57;0.63;;;;;;;;;;5031349;28;20418;-82
2023/11/10 00:04:49;;;;;;;2.60;0.67;;;;;;;;;;5032647;28;20976;-84
2023/11/10 00:07:17;;;;;;;2.77;1.03;;;;;;;;;;5032741;28;20466;-85
2023/11/10 00:09:43;;;;;;;2.20;0.40;;;;;;;;;;5035842;28;20414;-87
2023/11/10 00:12:09;;;;;;;2.90;0.50;;;;;;;;;;5039570;28;20420;-87
2023/11/10 00:14:35;;;;;;;3.10;0.90;;;;;;;;;;5039267;28;20440;-85
2023/11/10 00:17:01;;;;;;;4.47;0.57;;;;;;;;;;5039180;28;20455;-87
2023/11/10 00:19:27;;;;;;;3.00;0.53;;;;;;;;;;5039874;28;20427;-89
2023/11/10 00:21:56;;;;;;;5.10;0.70;;;;;;;;;;5039628;28;20414;-84
2023/11/10 00:24:23;;;;;;;4.13;0.40;;;;;;;;;;5039850;28;20940;-93
2023/11/10 00:26:50;;;;;;;2.20;0.60;;;;;;;;;;5039565;28;20409;-90
2023/11/10 00:29:16;;;;;;;2.43;0.40;;;;;;;;;;5039641;28;20422;-92
2023/11/10 00:31:43;;;;;;;1.63;0.67;;;;;;;;;;5030451;28;20461;-88
2023/11/10 00:34:09;;;;;;;2.83;0.63;;;;;;;;;;5020236;28;20426;-87
2023/11/10 00:36:34;;;;;;;1.70;0.60;;;;;;;;;;5020349;28;20904;-91
2023/11/10 00:39:00;;;;;;;3.00;0.67;;;;;;;;;;5020315;28;20436;-91
2023/11/10 00:41:26;;;;;;;2.80;0.90;;;;;;;;;;5020624;28;20262;-92
2023/11/10 00:43:52;;;;;;;2.60;0.30;;;;;;;;;;5020447;28;20174;-94
2023/11/10 00:46:18;;;;;;;2.63;0.80;;;;;;;;;;5020170;28;20496;-92
2023/11/10 00:48:44;;;;;;;2.67;0.73;;;;;;;;;;5019491;28;20486;-94
2023/11/10 00:51:10;;;;;;;0.60;0.20;;;;;;;;;;5020422;28;20405;-93
2023/11/10 00:53:36;;;;;;;0.70;0.20;;;;;;;;;;5019747;28;20418;-90
2023/11/10 00:56:02;;;;;;;2.27;1.00;;;;;;;;;;5019882;28;20461;-90
2023/11/10 00:58:28;;;;;;;1.33;0.53;;;;;;;;;;5019866;28;20415;-87
2023/11/10 01:00:53;;;;;;;2.23;0.37;;;;;;;;;;5019961;28;20410;-94
2023/11/10 01:03:19;;;;;;;0.73;0.20;;;;;;;;;;5018969;28;20423;-90
2023/11/10 01:05:45;;;;;;;1.43;0.20;;;;;;;;;;5019776;28;20440;-88
2023/11/10 01:08:11;;;;;;;2.37;0.20;;;;;;;;;;5019655;28;20474;-93
2023/11/10 01:10:37;;;;;;;4.20;0.60;;;;;;;;;;5019673;28;20453;-93
2023/11/10 01:13:06;;;;;;;1.43;0.20;;;;;;;;;;5019701;28;20424;-87
2023/11/10 01:15:32;;;;;;;1.80;0.27;;;;;;;;;;5019334;28;20409;-87
2023/11/10 01:17:58;;;;;;;1.60;0.20;;;;;;;;;;5018952;28;20847;-88
2023/11/10 01:20:24;;;;;;;0.60;0.20;;;;;;;;;;5017689;28;20521;-90
2023/11/10 01:22:50;;;;;;;0.50;0.20;;;;;;;;;;5015924;28;20505;-91
2023/11/10 01:25:15;;;;;;;1.10;0.20;;;;;;;;;;5016382;28;20464;-89
2023/11/10 01:27:42;;;;;;;0.97;0.30;;;;;;;;;;5016369;28;20470;-90
2023/11/10 01:30:09;;;;;;;2.00;0.20;;;;;;;;;;5019026;28;20531;-90
2023/11/10 01:32:35;;;;;;;2.50;0.20;;;;;;;;;;5023494;28;21017;-86
2023/11/10 01:35:00;;;;;;;2.23;0.40;;;;;;;;;;5015428;28;20505;-87
2023/11/10 01:37:26;;;;;;;2.37;0.20;;;;;;;;;;5015216;28;20784;-87
2023/11/10 01:39:52;;;;;;;0.70;0.20;;;;;;;;;;5015686;28;20410;-86
2023/11/10 01:42:18;;;;;;;0.80;0.27;;;;;;;;;;5030597;28;20419;-86
2023/11/10 01:44:44;;;;;;;2.37;0.53;;;;;;;;;;5015380;28;20437;-85
2023/11/10 01:47:11;;;;;;;1.37;0.20;;;;;;;;;;5014912;28;20459;-86
2023/11/10 01:49:38;;;;;;;0.70;0.20;;;;;;;;;;5015424;28;20425;-86
2023/11/10 01:52:04;;;;;;;2.23;0.20;;;;;;;;;;5015445;28;20410;-86
2023/11/10 01:54:34;;;;;;;1.00;0.20;;;;;;;;;;5014946;28;20469;-85
2023/11/10 01:57:00;;;;;;;2.20;0.47;;;;;;;;;;5015252;28;20508;-86
2023/11/10 01:59:28;;;;;;;1.33;0.20;;;;;;;;;;5015299;28;20413;-88
2023/11/10 02:01:54;;;;;;;2.23;0.30;;;;;;;;;;5014848;28;20424;-86
2023/11/10 02:04:20;;;;;;;1.60;0.30;;;;;;;;;;5015221;28;20838;-85
2023/11/10 02:06:47;;;;;;;1.00;0.10;;;;;;;;;;5030183;28;20174;-85
2023/11/10 02:09:14;;;;;;;1.33;0.20;;;;;;;;;;5027394;28;20463;-86
2023/11/10 02:11:40;;;;;;;1.73;0.20;;;;;;;;;;5050176;28;20746;-85
2023/11/10 02:14:10;;;;;;;2.20;0.20;;;;;;;;;;5034714;28;20460;-83
2023/11/10 02:16:37;;;;;;;2.60;0.30;;;;;;;;;;5034717;28;20394;-85
2023/11/10 02:19:03;;;;;;;2.03;0.40;;;;;;;;;;5034236;28;20809;-85
2023/11/10 02:21:29;;;;;;;1.47;0.30;;;;;;;;;;5049953;28;20912;-86
2023/11/10 02:24:01;;;;;;;0.50;0.30;;;;;;;;;;5034636;28;20417;-87
2023/11/10 02:26:27;;;;;;;2.10;0.20;;;;;;;;;;5034576;28;20422;-85
2023/11/10 02:28:53;;;;;;;0.67;0.20;;;;;;;;;;5034288;28;20473;-85
2023/11/10 02:31:19;;;;;;;1.60;0.40;;;;;;;;;;5026382;28;20440;-84
2023/11/10 02:33:46;;;;;;;3.27;0.40;;;;;;;;;;5011766;28;20425;-84
2023/11/10 02:36:12;;;;;;;1.57;0.40;;;;;;;;;;5014479;28;20459;-86
2023/11/10 02:38:39;;;;;;;1.73;0.60;;;;;;;;;;5014565;28;20901;-85
2023/11/10 02:41:05;;;;;;;1.17;0.30;;;;;;;;;;5014471;28;20437;-85
2023/11/10 02:43:34;;;;;;;3.67;0.87;;;;;;;;;;5014512;28;20417;-86
2023/11/10 02:46:00;;;;;;;2.40;0.40;;;;;;;;;;5014343;28;20430;-87
2023/11/10 02:48:26;;;;;;;1.33;0.40;;;;;;;;;;5014010;28;20478;-86
2023/11/10 02:50:52;;;;;;;1.00;0.40;;;;;;;;;;5014284;28;20437;-83
2023/11/10 02:53:18;;;;;;;2.30;0.50;;;;;;;;;;5014298;28;20508;-86
2023/11/10 02:55:44;;;;;;;1.17;0.30;;;;;;;;;;5014057;28;20460;-87
2023/11/10 02:58:10;;;;;;;3.40;1.23;;;;;;;;;;5020674;28;20459;-85
2023/11/10 03:00:37;;;;;;;1.57;0.23;;;;;;;;;;5033440;28;20443;-86
2023/11/10 03:03:03;;;;;;;1.60;0.50;;;;;;;;;;5033362;28;20470;-85
2023/11/10 03:05:29;;;;;;;1.17;0.20;;;;;;;;;;5032412;28;20806;-87
2023/11/10 03:07:55;;;;;;;1.57;0.60;;;;;;;;;;5032946;28;20476;-84
2023/11/10 03:10:21;;;;;;;4.30;0.50;;;;;;;;;;5033930;28;20480;-85
2023/11/10 03:12:47;;;;;;;1.40;0.50;;;;;;;;;;5031861;28;20440;-86
2023/11/10 03:15:13;;;;;;;1.30;0.43;;;;;;;;;;5033492;28;20413;-82
2023/11/10 03:17:39;;;;;;;3.27;0.67;;;;;;;;;;5032473;28;20421;-82
2023/11/10 03:20:06;;;;;;;5.40;0.60;;;;;;;;;;5032722;28;20459;-82
2023/11/10 03:22:32;;;;;;;1.30;0.60;;;;;;;;;;5033674;28;20178;-81
2023/11/10 03:24:58;;;;;;;6.77;1.27;;;;;;;;;;5033518;28;20413;-81
2023/11/10 03:27:24;;;;;;;2.57;0.90;;;;;;;;;;5033478;28;20479;-82
2023/11/10 03:29:51;;;;;;;1.57;0.93;;;;;;;;;;5033534;28;20415;-82
2023/11/10 03:32:18;;;;;;;2.70;0.80;;;;;;;;;;5033039;28;20447;-82
2023/11/10 03:34:45;;;;;;;4.37;1.80;;;;;;;;;;5033414;28;20412;-83
2023/11/10 03:37:11;;;;;;;8.43;1.63;;;;;;;;;;5033472;28;20416;-82
2023/11/10 03:39:37;;;;;;;2.90;1.73;;;;;;;;;;5033400;28;20508;-84
2023/11/10 03:42:03;;;;;;;3.20;1.77;;;;;;;;;;5033384;28;20514;-83
2023/11/10 03:44:29;;;;;;;2.70;1.97;;;;;;;;;;5032960;28;20896;-83
2023/11/10 03:46:59;;;;;;;4.33;2.40;;;;;;;;;;5032898;28;20500;-83
2023/11/10 03:49:25;;;;;;;11.70;3.10;;;;;;;;;;5033186;28;20428;-84
2023/11/10 03:51:51;;;;;;;3.97;2.37;;;;;;;;;;5032757;28;20789;-85
2023/11/10 03:54:18;;;;;;;3.63;2.33;;;;;;;;;;5032868;28;20467;-82
2023/11/10 03:56:44;;;;;;;3.03;1.50;;;;;;;;;;5033091;28;20473;-82
2023/11/10 03:59:10;;;;;;;4.10;2.50;;;;;;;;;;5033045;28;20423;-82
2023/11/10 04:01:37;;;;;;;3.20;2.73;;;;;;;;;;5032640;28;20422;-81
2023/11/10 04:04:03;;;;;;;3.00;2.60;;;;;;;;;;5033042;28;20494;-82
2023/11/10 04:06:29;;;;;;;3.93;1.73;;;;;;;;;;5032991;28;20425;-81
2023/11/10 04:08:55;;;;;;;4.63;2.40;;;;;;;;;;5032769;28;21001;-81
2023/11/10 04:11:21;;;;;;;3.33;2.53;;;;;;;;;;5032955;28;20410;-82
2023/11/10 04:13:47;;;;;;;5.70;2.60;;;;;;;;;;5032890;28;20419;-82
2023/11/10 04:16:16;;;;;;;3.20;1.27;;;;;;;;;;5032894;28;20416;-83
2023/11/10 04:18:42;;;;;;;3.70;2.67;;;;;;;;;;5032523;28;20472;-82
2023/11/10 04:21:08;;;;;;;2.50;1.90;;;;;;;;;;5032862;28;20413;-82
2023/11/10 04:23:34;;;;;;;3.00;2.43;;;;;;;;;;5032801;28;20767;-82
2023/11/10 04:26:05;;;;;;;5.73;2.93;;;;;;;;;;5048120;28;20409;-85
2023/11/10 04:28:31;;;;;;;4.03;2.63;;;;;;;;;;5048186;28;20579;-85
2023/11/10 04:30:57;;;;;;;3.40;2.20;;;;;;;;;;5048189;28;20504;-84
2023/11/10 04:33:22;;;;;;;3.43;2.07;;;;;;;;;;5032405;28;20438;-83
2023/11/10 04:35:48;;;;;;;2.90;1.93;;;;;;;;;;5032714;28;20820;-84
2023/11/10 04:38:14;;;;;;;4.17;1.90;;;;;;;;;;5032712;28;20181;-85
2023/11/10 04:40:40;;;;;;;2.60;1.87;;;;;;;;;;5048096;28;20420;-85
2023/11/10 04:43:06;;;;;;;4.40;2.10;;;;;;;;;;5032653;28;20983;-86
2023/11/10 04:45:32;;;;;;;2.80;2.10;;;;;;;;;;5032683;28;20515;-84
2023/11/10 04:47:58;;;;;;;6.80;2.37;;;;;;;;;;5032285;28;20471;-84
2023/11/10 04:50:24;;;;;;;2.57;1.47;;;;;;;;;;5032529;28;20404;-82
2023/11/10 04:52:51;;;;;;;6.13;1.13;;;;;;;;;;5032566;28;20894;-83
2023/11/10 04:55:18;;;;;;;2.93;2.00;;;;;;;;;;5032388;28;20702;-82
2023/11/10 04:57:44;;;;;;;2.00;1.37;;;;;;;;;;5035715;28;20414;-82
2023/11/10 05:00:11;;;;;;;5.13;1.90;;;;;;;;;;5036289;28;20419;-83
2023/11/10 05:02:37;;;;;;;2.77;1.27;;;;;;;;;;5035844;28;20555;-84
2023/11/10 05:05:03;;;;;;;5.10;2.33;;;;;;;;;;5036129;28;20451;-82
2023/11/10 05:07:29;;;;;;;2.27;1.27;;;;;;;;;;5036113;28;20562;-84
2023/11/10 05:09:55;;;;;;;2.73;1.50;;;;;;;;;;5036105;28;20509;-83
2023/11/10 05:12:21;;;;;;;5.33;1.60;;;;;;;;;;5036093;28;20406;-83
2023/11/10 05:14:47;;;;;;;3.97;1.60;;;;;;;;;;5035968;28;20418;-83
2023/11/10 05:17:13;;;;;;;2.50;1.20;;;;;;;;;;5035629;28;20402;-83
2023/11/10 05:19:39;;;;;;;5.43;1.60;;;;;;;;;;5035978;28;20412;-84
2023/11/10 05:22:06;;;;;;;3.33;0.93;;;;;;;;;;5035773;28;20408;-85
2023/11/10 05:24:32;;;;;;;1.87;1.30;;;;;;;;;;5035931;28;20807;-83
2023/11/10 05:26:59;;;;;;;4.87;1.30;;;;;;;;;;5035774;28;20405;-82
2023/11/10 05:29:25;;;;;;;3.90;1.00;;;;;;;;;;5035758;28;20417;-82
2023/11/10 05:31:53;;;;;;;1.57;0.30;;;;;;;;;;5035337;28;20485;-83
2023/11/10 05:34:19;;;;;;;2.33;1.00;;;;;;;;;;5035693;28;20738;-83
2023/11/10 05:36:45;;;;;;;3.43;0.93;;;;;;;;;;5051036;28;20428;-83
2023/11/10 05:39:11;;;;;;;2.30;0.67;;;;;;;;;;5035700;28;20405;-84
2023/11/10 05:41:40;;;;;;;1.73;0.43;;;;;;;;;;5035608;28;20906;-83
2023/11/10 05:44:06;;;;;;;3.93;1.37;;;;;;;;;;5035453;28;20414;-83
2023/11/10 05:46:32;;;;;;;2.50;1.00;;;;;;;;;;5034631;28;20421;-83
2023/11/10 05:48:58;;;;;;;2.77;1.10;;;;;;;;;;5035295;28;20491;-84
2023/11/10 05:51:24;;;;;;;1.67;0.43;;;;;;;;;;5035374;28;20409;-81
2023/11/10 05:53:50;;;;;;;3.00;0.60;;;;;;;;;;5035177;28;20421;-82
2023/11/10 05:56:15;;;;;;;3.33;1.03;;;;;;;;;;5035330;28;20428;-82
2023/11/10 05:58:42;;;;;;;1.73;0.60;;;;;;;;;;5035215;28;20414;-82
2023/11/10 06:01:07;;;;;;;2.33;0.83;;;;;;;;;;5034811;28;20738;-83
2023/11/10 06:03:34;;;;;;;1.53;0.40;;;;;;;;;;5035141;28;20424;-82
2023/11/10 06:05:59;;;;;;;1.27;0.57;;;;;;;;;;5034668;28;20482;-82
2023/11/10 06:08:25;;;;;;;2.40;0.77;;;;;;;;;;5034164;28;20473;-82
2023/11/10 06:10:53;;;;;;;1.63;0.53;;;;;;;;;;5034346;28;20415;-82
2023/11/10 06:13:22;;;;;;;2.40;0.93;;;;;;;;;;5034564;28;20422;-82
2023/11/10 06:15:48;;;;;;;7.50;0.40;;;;;;;;;;5034332;28;20464;-81
2023/11/10 06:18:14;;;;;;;2.30;0.87;;;;;;;;;;5024542;28;20414;-80
2023/11/10 06:20:40;;;;;;;3.90;0.73;;;;;;;;;;5034258;28;20416;-81
2023/11/10 06:23:06;;;;;;;4.23;0.67;;;;;;;;;;5033060;28;20516;-81
2023/11/10 06:25:32;;;;;;;4.90;0.93;;;;;;;;;;5032727;28;20410;-81
2023/11/10 06:27:58;;;;;;;2.47;0.80;;;;;;;;;;5033159;28;20533;-80
2023/11/10 06:30:24;;;;;;;7.23;0.73;;;;;;;;;;5049977;28;20419;-80
2023/11/10 06:32:50;;;;;;;3.00;0.50;;;;;;;;;;5032574;28;20432;-79
2023/11/10 06:35:16;;;;;;;2.00;0.50;;;;;;;;;;5034085;28;20490;-80
2023/11/10 06:37:42;;;;;;;4.30;0.60;;;;;;;;;;5034539;28;20422;-79
2023/11/10 06:40:09;;;;;;;3.47;0.30;;;;;;;;;;5034537;28;20411;-80
2023/11/10 06:42:34;;;;;;;3.80;0.77;;;;;;;;;;5034380;28;20420;-82
2023/11/10 06:45:02;;;;;;;2.80;0.70;;;;;;;;;;5034345;28;20495;-80
2023/11/10 06:47:28;;;;;;;1.47;0.40;;;;;;;;;;5033881;28;20506;-82
2023/11/10 06:49:55;;;;;;;5.50;0.70;;;;;;;;;;5034157;28;20411;-82
2023/11/10 06:52:22;;;;;;;2.63;0.43;;;;;;;;;;5034148;28;20407;-85
2023/11/10 06:54:48;;;;;;;4.90;0.50;;;;;;;;;;5033985;28;20463;-82
2023/11/10 06:57:15;;;;;;;3.70;0.73;;;;;;;;;;5033923;28;20412;-82
2023/11/10 06:59:42;;;;;;;2.30;0.87;;;;;;;;;;5034047;28;20442;-84
2023/11/10 07:02:12;;;;;;;1.80;0.37;;;;;;;;;;5033600;28;20415;-83
2023/11/10 07:04:39;;;;;;;6.03;0.97;;;;;;;;;;5033943;28;20402;-83
2023/11/10 07:07:05;;;;;;;2.10;0.30;;;;;;;;;;5033847;28;20458;-82
2023/11/10 07:09:31;;;;;;;6.30;0.70;;;;;;;;;;5033801;28;20809;-83
2023/11/10 07:11:57;;;;;;;1.83;0.53;;;;;;;;;;5049198;28;20423;-81
2023/11/10 07:14:23;;;;;;;1.53;0.20;;;;;;;;;;5033823;28;20438;-83
2023/11/10 07:16:50;;;;;;;3.13;0.57;;;;;;;;;;5033405;28;20418;-83
2023/11/10 07:19:18;;;;;;;2.80;0.37;;;;;;;;;;5033043;28;20411;-82
2023/11/10 07:21:44;;;;;;;3.93;0.50;;;;;;;;;;5033733;28;20519;-81
2023/11/10 07:24:10;;;;;;;2.00;0.60;;;;;;;;;;5033658;28;20513;-80
2023/11/10 07:26:36;;;;;;;2.40;1.23;;;;;;;;;;5033570;28;20975;-80
2023/11/10 07:29:03;;;;;;;4.20;2.00;;;;;;;;;;5048873;28;20475;-81
2023/11/10 07:31:29;;;;;;;3.87;1.00;;;;;;;;;;5048575;28;20413;-80
2023/11/10 07:33:55;;;;;;;2.87;0.40;;;;;;;;;;5033515;28;20502;-80
2023/11/10 07:36:22;;;;;;;2.67;1.17;;;;;;;;;;5033518;28;20556;-80
2023/11/10 07:38:48;;;;;;;5.00;1.53;;;;;;;;;;5033393;28;20415;-80
2023/11/10 07:41:14;;;;;;;2.43;0.50;;;;;;;;;;5033365;28;20411;-80
2023/11/10 07:43:40;;;;;;;4.10;1.50;;;;;;;;;;5032923;28;20777;-80
2023/11/10 07:46:06;;;;;;;6.80;2.27;;;;;;;;;;5032909;28;20936;-79
2023/11/10 07:48:33;;;;;;;29.10;13.23;;;;;;;;;;5032994;28;20478;-80
2023/11/10 07:50:59;;;;;;;6.50;4.10;;;;;;;;;;5033266;28;20438;-79
2023/11/10 07:53:28;;;;;;;2.27;1.50;;;;;;;;;;5033258;28;20837;-80
2023/11/10 07:55:54;;;;;;;4.00;0.60;;;;;;;;;;5032700;28;20493;-81
2023/11/10 07:58:23;;;;;;;5.60;4.47;;;;;;;;;;5033168;28;21078;-81
2023/11/10 08:00:49;;;;;;;2.63;0.43;;;;;;;;;;5032779;28;20412;-81
2023/11/10 08:03:17;;;;;;;6.67;1.00;;;;;;;;;;5033164;28;20916;-80
2023/11/10 08:05:44;;;;;;;1.27;0.40;;;;;;;;;;5032989;28;20826;-81
2023/11/10 08:08:10;;;;;;;4.17;0.50;;;;;;;;;;5032926;28;20508;-82
2023/11/10 08:10:36;;;;;;;2.90;1.13;;;;;;;;;;5033057;28;20497;-81
2023/11/10 08:13:02;;;;;;;5.20;0.40;;;;;;;;;;5032914;28;20435;-82
2023/11/10 08:15:29;;;;;;;4.90;0.50;;;;;;;;;;5031618;28;20407;-80
2023/11/10 08:17:55;;;;;;;1.63;0.70;;;;;;;;;;5032425;28;20427;-81
2023/11/10 08:20:22;;;;;;;3.13;1.10;;;;;;;;;;5033005;28;20450;-81
2023/11/10 08:22:48;;;;;;;2.47;0.80;;;;;;;;;;5032968;28;20833;-80
2023/11/10 08:25:15;;;;;;;1.70;0.20;;;;;;;;;;5032875;28;20517;-81
2023/11/10 08:27:40;;;;;;;2.23;0.30;;;;;;;;;;5032735;28;20468;-82
2023/11/10 08:30:11;;;;;;;0.70;0.20;;;;;;;;;;5033594;28;20850;-82
2023/11/10 08:32:37;;;;;;;4.50;1.17;;;;;;;;;;5036530;28;20422;-82
2023/11/10 08:35:03;;;;;;;1.17;0.50;;;;;;;;;;5036716;28;20442;-81
2023/11/10 08:37:30;;;;;;;1.70;0.30;;;;;;;;;;5035535;28;20481;-81
2023/11/10 08:39:57;;;;;;;5.00;1.07;;;;;;;;;;5036729;28;20495;-81
2023/11/10 08:42:22;;;;;;;2.20;0.40;;;;;;;;;;5036723;28;20819;-84
2023/11/10 08:44:49;;;;;;;1.57;0.30;;;;;;;;;;5036587;28;20413;-83
2023/11/10 08:47:16;;;;;;;3.20;0.20;;;;;;;;;;5036072;28;20457;-82
2023/11/10 08:49:46;;;;;;;2.50;0.80;;;;;;;;;;5035473;28;20508;-82
2023/11/10 08:52:14;;;;;;;1.37;0.47;;;;;;;;;;5036469;28;20409;-84
2023/11/10 08:54:40;;;;;;;1.23;0.57;;;;;;;;;;5036107;28;20506;-83
2023/11/10 08:57:06;;;;;;;3.23;0.30;;;;;;;;;;5036391;28;20445;-82
2023/11/10 08:59:32;;;;;;;0.97;0.20;;;;;;;;;;5036410;28;20816;-81
2023/11/10 09:01:58;;;;;;;1.80;0.27;;;;;;;;;;5036029;28;20435;-81
2023/11/10 09:04:24;;;;;;;0.70;0.20;;;;;;;;;;5036402;28;20545;-83
2023/11/10 09:06:50;;;;;;;3.20;0.53;;;;;;;;;;5036203;28;20844;-82
2023/11/10 09:09:17;;;;;;;1.83;0.20;;;;;;;;;;5036241;28;20479;-82
2023/11/10 09:11:42;;;;;;;3.40;1.17;;;;;;;;;;5036362;28;20439;-82
2023/11/10 09:14:10;;;;;;;1.63;0.40;;;;;;;;;;5036114;28;20424;-84
2023/11/10 09:16:36;;;;;;;3.00;0.47;;;;;;;;;;5035749;28;20418;-81
2023/11/10 09:19:02;;;;;;;1.77;0.30;;;;;;;;;;5036047;28;20420;-84
2023/11/10 09:21:28;;;;;;;4.30;0.30;;;;;;;;;;5036176;28;20496;-82
2023/11/10 09:23:54;;;;;;;2.07;0.80;;;;;;;;;;5036176;28;20529;-86
2023/11/10 09:26:20;;;;;;;1.30;0.20;;;;;;;;;;5036251;28;20166;-86
2023/11/10 09:28:49;;;;;;;3.13;0.50;;;;;;;;;;5036445;28;20479;-86
2023/11/10 09:31:15;;;;;;;2.43;0.73;;;;;;;;;;5036408;28;20417;-83
2023/11/10 09:33:41;;;;;;;2.80;0.70;;;;;;;;;;5037050;28;20409;-79
2023/11/10 09:36:08;;;;;;;1.80;0.20;;;;;;;;;;5035817;28;20406;-78
2023/11/10 09:38:35;;;;;;;0.90;0.20;;;;;;;;;;5035656;28;20409;-81
2023/11/10 09:41:02;;;;;;;2.77;0.30;;;;;;;;;;5036156;28;20406;-83
2023/11/10 09:43:29;;;;;;;1.53;0.30;;;;;;;;;;5035290;28;20420;-79
2023/11/10 09:45:56;;;;;;;3.10;0.30;;;;;;;;;;5035530;28;20512;-85
2023/11/10 09:48:23;;;;;;;2.10;0.40;;;;;;;;;;5036316;28;20472;-84
2023/11/10 09:50:50;;;;;;;4.97;1.03;;;;;;;;;;5036196;28;20437;-84
2023/11/10 09:53:17;;;;;;;2.30;0.30;;;;;;;;;;5035599;28;20918;-80
2023/11/10 09:55:46;;;;;;;3.13;0.20;;;;;;;;;;5039953;28;20458;-90
2023/11/10 09:58:14;;;;;;;2.20;0.30;;;;;;;;;;5036429;28;20422;-94
2023/11/10 10:00:41;;;;;;;2.97;0.50;;;;;;;;;;5018610;28;20408;-89
2023/11/10 10:03:07;;;;;;;3.30;0.30;;;;;;;;;;5032034;28;20452;-93
2023/11/10 10:05:37;;;;;;;7.60;0.50;;;;;;;;;;5040253;28;20422;-94
2023/11/10 10:08:03;;;;;;;3.47;0.20;;;;;;;;;;5037854;28;20480;-89
2023/11/10 10:10:30;;;;;;;2.73;0.37;;;;;;;;;;5037997;28;20406;-94
2023/11/10 10:12:57;;;;;;;5.57;0.63;;;;;;;;;;5045691;28;20432;-94
2023/11/10 10:15:31;;;;;;;1.43;0.40;;;;;;;;;;5035273;28;20421;-93
2023/11/10 10:18:04;;;;;;;3.50;0.60;;;;;;;;;;5026748;28;20416;-92
2023/11/10 10:20:30;;;;;;;1.10;0.30;;;;;;;;;;5051268;28;20530;-93
2023/11/10 10:22:57;;;;;;;4.33;0.67;;;;;;;;;;5051130;28;20460;-93
2023/11/10 10:25:32;;;;;;;0.70;0.20;;;;;;;;;;5049360;28;20449;-89
2023/11/10 10:28:02;;;;;;;1.67;0.53;;;;;;;;;;5028960;28;20514;-84
2023/11/10 10:30:28;;;;;;;1.80;0.40;;;;;;;;;;5026289;28;20466;-88
2023/11/10 10:32:54;;;;;;;1.80;0.47;;;;;;;;;;5029259;28;20415;-92
2023/11/10 10:35:21;;;;;;;3.30;0.37;;;;;;;;;;5029481;28;20418;-89
2023/11/10 10:37:50;;;;;;;1.43;0.53;;;;;;;;;;5013849;28;20410;-88
2023/11/10 10:40:16;;;;;;;1.50;0.40;;;;;;;;;;5014741;28;20920;-85
2023/11/10 10:42:44;;;;;;;2.50;0.57;;;;;;;;;;5013646;28;20450;-86
2023/11/10 10:45:10;;;;;;;1.70;0.30;;;;;;;;;;5014550;28;20508;-90
2023/11/10 10:47:36;;;;;;;2.43;0.40;;;;;;;;;;5014245;28;20471;-85
2023/11/10 10:50:04;;;;;;;2.20;0.80;;;;;;;;;;5029720;28;20426;-89
2023/11/10 10:52:31;;;;;;;1.93;0.67;;;;;;;;;;5014102;28;20757;-87
2023/11/10 10:55:01;;;;;;;2.07;0.40;;;;;;;;;;5012521;28;20464;-83
2023/11/10 10:57:27;;;;;;;3.10;0.50;;;;;;;;;;5014132;28;20412;-87
2023/11/10 10:59:54;;;;;;;1.90;0.63;;;;;;;;;;5014095;28;20415;-86
2023/11/10 11:02:22;;;;;;;2.37;0.40;;;;;;;;;;5028304;28;20449;-85
2023/11/10 11:04:52;;;;;;;2.80;0.80;;;;;;;;;;5013949;28;20503;-86
2023/11/10 11:07:21;;;;;;;2.70;0.80;;;;;;;;;;5012733;28;20458;-88
2023/11/10 11:09:47;;;;;;;1.80;0.50;;;;;;;;;;5013274;28;20761;-88
2023/11/10 11:12:27;;;;;;;3.30;0.47;;;;;;;;;;5028397;28;20428;-87
2023/11/10 11:15:05;;;;;;;4.53;0.60;;;;;;;;;;5013665;28;20177;-85
2023/11/10 11:17:47;;;;;;;4.70;0.40;;;;;;;;;;5028518;28;20448;-88
2023/11/10 11:20:16;;;;;;;2.80;0.30;;;;;;;;;;5014053;28;20427;-89
2023/11/10 11:22:43;;;;;;;2.83;0.40;;;;;;;;;;5014028;28;20409;-89
2023/11/10 11:25:09;;;;;;;2.30;0.73;;;;;;;;;;5014249;28;20403;-85
2023/11/10 11:27:36;;;;;;;3.50;1.13;;;;;;;;;;5015143;28;20475;-84
2023/11/10 11:30:10;;;;;;;1.87;0.60;;;;;;;;;;5014773;28;20433;-90
2023/11/10 11:32:43;;;;;;;1.90;0.50;;;;;;;;;;5015936;28;20925;-94
2023/11/10 11:35:15;;;;;;;3.07;0.63;;;;;;;;;;5014253;28;20437;-86
2023/11/10 11:37:43;;;;;;;1.73;0.30;;;;;;;;;;5013519;28;20418;-86
2023/11/10 11:40:09;;;;;;;3.03;0.90;;;;;;;;;;5028452;28;20427;-86
2023/11/10 11:42:40;;;;;;;2.30;0.70;;;;;;;;;;5012691;28;20406;-88
2023/11/10 11:45:13;;;;;;;5.70;2.03;;;;;;;;;;5027893;28;20831;-86
2023/11/10 11:47:39;;;;;;;2.83;0.63;;;;;;;;;;5027735;28;20466;-86
2023/11/10 11:50:05;;;;;;;3.10;1.10;;;;;;;;;;5013555;28;20522;-88
2023/11/10 11:52:31;;;;;;;2.90;0.77;;;;;;;;;;5028902;28;20422;-86
2023/11/10 11:55:00;;;;;;;3.87;0.47;;;;;;;;;;5014209;28;20504;-87
2023/11/10 11:57:26;;;;;;;1.83;0.67;;;;;;;;;;5013913;28;20513;-89
2023/11/10 11:59:52;;;;;;;2.30;0.47;;;;;;;;;;5029034;28;20460;-88
2023/11/10 12:02:21;;;;;;;3.67;1.27;;;;;;;;;;5013255;28;20775;-90
2023/11/10 12:04:48;;;;;;;3.87;0.87;;;;;;;;;;5028893;28;20415;-90
2023/11/10 12:07:14;;;;;;;2.57;0.60;;;;;;;;;;5028534;28;20523;-87
2023/11/10 12:09:40;;;;;;;1.43;0.40;;;;;;;;;;5028098;28;20940;-85
2023/11/10 12:12:06;;;;;;;2.40;1.10;;;;;;;;;;5013300;28;20413;-94
2023/11/10 12:14:32;;;;;;;3.20;1.00;;;;;;;;;;5014112;28;20810;-90
2023/11/10 12:16:58;;;;;;;1.10;0.40;;;;;;;;;;5013431;28;20424;-91
2023/11/10 12:19:25;;;;;;;3.20;0.70;;;;;;;;;;5013893;28;20419;-95
2023/11/10 12:21:51;;;;;;;4.23;0.77;;;;;;;;;;5013519;28;20415;-86
2023/11/10 12:24:22;;;;;;;1.50;0.77;;;;;;;;;;5013693;28;20439;-93
2023/11/10 12:26:48;;;;;;;4.10;0.97;;;;;;;;;;5019745;28;21022;-88
2023/11/10 12:29:26;;;;;;;2.93;0.53;;;;;;;;;;5033051;28;20480;-86
2023/11/10 12:31:52;;;;;;;1.43;0.47;;;;;;;;;;5030606;28;20410;-85
2023/11/10 12:34:18;;;;;;;2.40;0.80;;;;;;;;;;5032163;28;20417;-85
2023/11/10 12:36:45;;;;;;;1.80;0.63;;;;;;;;;;5032104;28;20397;-83
2023/11/10 12:39:17;;;;;;;2.50;0.53;;;;;;;;;;5032101;28;20437;-85
2023/11/10 12:41:43;;;;;;;6.80;1.20;;;;;;;;;;5032239;28;20409;-85
2023/11/10 12:44:09;;;;;;;1.70;0.70;;;;;;;;;;5031050;28;20915;-86
2023/11/10 12:46:35;;;;;;;4.30;1.60;;;;;;;;;;5031905;28;20477;-84
2023/11/10 12:49:03;;;;;;;2.40;0.70;;;;;;;;;;5032499;28;20477;-90
2023/11/10 12:51:29;;;;;;;3.20;0.50;;;;;;;;;;5029791;28;20584;-88
2023/11/10 12:54:28;;;;;;;3.10;0.93;;;;;;;;;;5015023;28;20927;-85
2023/11/10 12:56:54;;;;;;;3.63;0.63;;;;;;;;;;5027368;28;20440;-86
2023/11/10 12:59:39;;;;;;;2.83;0.50;;;;;;;;;;5012432;28;20415;-85
2023/11/10 13:02:07;;;;;;;6.53;0.40;;;;;;;;;;5011817;28;20433;-82
2023/11/10 13:04:33;;;;;;;2.90;0.60;;;;;;;;;;5013706;28;20466;-90
2023/11/10 13:06:59;;;;;;;1.33;0.67;;;;;;;;;;5030173;28;20461;-82
2023/11/10 13:09:29;;;;;;;1.67;0.50;;;;;;;;;;5032157;28;21052;-83
2023/11/10 13:11:55;;;;;;;3.63;0.63;;;;;;;;;;5031602;28;20750;-83
2023/11/10 13:14:21;;;;;;;2.73;0.30;;;;;;;;;;5032111;28;20474;-83
2023/11/10 13:16:47;;;;;;;1.70;0.80;;;;;;;;;;5029381;28;20500;-88
2023/11/10 13:19:14;;;;;;;1.50;0.63;;;;;;;;;;5032665;28;20423;-87
2023/11/10 13:21:40;;;;;;;1.67;0.57;;;;;;;;;;5035433;28;20832;-84
2023/11/10 13:24:06;;;;;;;2.63;0.80;;;;;;;;;;5028958;28;20467;-85
2023/11/10 13:26:33;;;;;;;1.70;0.40;;;;;;;;;;5014536;28;20488;-87
2023/11/10 13:28:59;;;;;;;2.20;0.80;;;;;;;;;;5019059;28;20478;-87
2023/11/10 13:31:31;;;;;;;2.30;0.53;;;;;;;;;;5031626;28;20418;-82
2023/11/10 13:34:06;;;;;;;3.73;0.90;;;;;;;;;;5033355;28;20478;-86
2023/11/10 13:36:32;;;;;;;3.13;0.87;;;;;;;;;;5032108;28;20837;-85
2023/11/10 13:38:58;;;;;;;4.03;1.13;;;;;;;;;;5033858;28;20427;-86
2023/11/10 13:41:24;;;;;;;1.83;1.30;;;;;;;;;;5033181;28;20423;-85
2023/11/10 13:43:50;;;;;;;3.97;0.93;;;;;;;;;;5034614;28;20761;-87
2023/11/10 13:46:16;;;;;;;1.63;1.00;;;;;;;;;;5034822;28;20421;-90
2023/11/10 13:48:45;;;;;;;2.97;0.93;;;;;;;;;;5033729;28;20207;-91
2023/11/10 13:51:11;;;;;;;3.43;1.17;;;;;;;;;;5035146;28;20461;-89
2023/11/10 13:53:36;;;;;;;1.77;0.60;;;;;;;;;;5035431;28;20417;-86
2023/11/10 13:56:04;;;;;;;2.23;0.50;;;;;;;;;;5034247;28;20466;-93
2023/11/10 13:58:30;;;;;;;4.20;1.17;;;;;;;;;;5035356;28;20170;-86
2023/11/10 14:00:56;;;;;;;1.70;1.27;;;;;;;;;;5035024;28;20410;-82
2023/11/10 14:03:22;;;;;;;2.63;0.40;;;;;;;;;;5017755;28;20436;-83
2023/11/10 14:05:48;;;;;;;3.63;1.27;;;;;;;;;;5014590;28;20756;-85
2023/11/10 14:08:15;;;;;;;4.10;0.60;;;;;;;;;;5014365;28;20482;-83
2023/11/10 14:10:41;;;;;;;2.10;0.80;;;;;;;;;;5013247;28;20814;-82
2023/11/10 14:13:08;;;;;;;4.17;0.50;;;;;;;;;;5014379;28;20488;-84
2023/11/10 14:15:34;;;;;;;2.40;0.77;;;;;;;;;;5014146;28;20415;-83
2023/11/10 14:17:59;;;;;;;2.87;0.33;;;;;;;;;;5014456;28;20429;-84
2023/11/10 14:20:26;;;;;;;1.93;0.57;;;;;;;;;;5032272;28;20177;-84
2023/11/10 14:22:53;;;;;;;3.50;1.10;;;;;;;;;;5024067;28;20443;-87
2023/11/10 14:25:19;;;;;;;2.00;0.63;;;;;;;;;;5041574;28;20408;-86
2023/11/10 14:27:45;;;;;;;1.57;0.50;;;;;;;;;;5054305;28;20463;-87
2023/11/10 14:30:12;;;;;;;2.30;0.50;;;;;;;;;;5033948;28;20181;-86
2023/11/10 14:32:38;;;;;;;1.70;0.73;;;;;;;;;;5032715;28;20421;-87
2023/11/10 14:35:05;;;;;;;1.37;0.43;;;;;;;;;;5051584;28;20446;-91
2023/11/10 14:37:31;;;;;;;2.10;0.80;;;;;;;;;;5019961;28;20439;-87
2023/11/10 14:39:58;;;;;;;2.53;1.03;;;;;;;;;;5024114;28;20487;-88
2023/11/10 14:42:24;;;;;;;1.80;0.83;;;;;;;;;;5034337;28;20410;-87